• Join FlightAware (Why Join?)
  • Login
  • US Flag 
02:32AM EDT


 

Airport Tracker/Info


-or-


 

Live Flight TrackerFlight Track Log ✈ SWA4281 ✈ 12-Feb-2014 ✈ KBUR - KLAS

Flight Track Log - Related Links

Times and Time Zones

All times are in EST time to prevent confusion due to time zone crossing. See the SWA4281 flight status page for this flight to view local times or setup timezone preferences in your user account.

Time Position Orientation Groundspeed Altitude Reporting Facility
EST Latitude Longitude Course Direction KTS MPH feet Rate Location/Type
02:32PM 34.1669 -118.4122 233° Southwest 231 266 4,800  Level Los Angeles Center
02:33PM 34.2308 -118.4344 344° North 257 296 8,700 3,720 Climbing Los Angeles Center
02:34PM 34.3028 -118.4081 17° North 278 320 12,500 3,540 Climbing Los Angeles Center
02:35PM 34.3794 -118.3728 21° North 295 339 16,100 3,240 Climbing Los Angeles Center
02:36PM 34.4583 -118.3308 24° Northeast 307 353 19,300 3,000 Climbing Los Angeles Center
02:37PM 34.5036 -118.2008 67° East 352 405 22,400 1,800 Climbing Los Angeles Center
02:38PM 34.5336 -118.0947 71° East 368 423 23,100 1,080 Climbing Los Angeles Center
02:39PM 34.5711 -117.9700 70° East 391 450 24,700 1,860 Climbing Los Angeles Center
02:40PM 34.6150 -117.8114 71° East 411 473 27,000 1,080 Climbing Los Angeles Center
02:41PM 34.6517 -117.6817 71° East 411 473 27,000  Level Los Angeles Center
02:42PM 34.6889 -117.5525 71° East 409 471 27,000  Level Los Angeles Center
02:43PM 34.7264 -117.4225 71° East 411 473 27,000  Level Los Angeles Center
02:45PM 34.8217 -117.1447 77° East 408 470 27,000  Level Los Angeles Center
02:46PM 34.8692 -117.0189 65° Northeast 411 473 27,000  Level Los Angeles Center
02:47PM 34.9167 -116.8917 65° Northeast 414 476 27,000  Level Los Angeles Center
02:48PM 34.9650 -116.7664 65° Northeast 412 474 27,000  Level Los Angeles Center
02:49PM 35.0122 -116.6403 65° Northeast 413 475 27,000 -780 Level Los Angeles Center
02:50PM 35.0683 -116.4897 65° Northeast 408 470 25,400 -1,440 Descending Los Angeles Center
02:52PM 35.1228 -116.3750 60° Northeast 403 464 24,000 -720 Descending Los Angeles Center
02:53PM 35.1956 -116.2814 46° Northeast 386 444 24,000 -240 Level Los Angeles Center
02:54PM 35.2692 -116.1906 45° Northeast 381 438 23,600 -1,140 Descending Los Angeles Center
02:55PM 35.3406 -116.0992 46° Northeast 375 432 21,700 -2,040 Descending Los Angeles Center
02:56PM 35.4256 -115.9933 45° Northeast 365 420 19,500 -1,920 Descending Los Angeles Center
02:57PM 35.4931 -115.9061 46° Northeast 358 412 17,800 -1,800 Descending Los Angeles Center
02:58PM 35.5661 -115.8150 45° Northeast 349 402 15,800 -1,980 Descending Los Angeles Center
02:58PM 35.5769 -115.8069 31° Northeast 346 398 15,500 -1,920 Descending Los Angeles Center
02:59PM 35.6414 -115.7256 46° Northeast 336 387 13,600 -1,320 Descending Los Angeles Center
03:00PM 35.6917 -115.6553 49° Northeast 325 374 13,000 -600 Descending Los Angeles Center
03:00PM 35.7039 -115.6447 35° Northeast 304 350 13,000  Level Los Angeles Center
03:01PM 35.7564 -115.5783 46° Northeast 286 329 13,000  Level Los Angeles Center
03:01PM 35.7611 -115.5789 355° North 267 307 13,000  Level Los Angeles Center
03:02PM 35.8250 -115.5703 North 250 288 13,000  Level Los Angeles Center
03:02PM 35.8308 -115.5722 345° North 251 289 13,000  Level Los Angeles Center
03:03PM 35.8944 -115.5664 North 251 289 13,000  Level Los Angeles Center
03:03PM 35.9011 -115.5681 349° North 250 288 13,000 -1,020 Level Los Angeles Center
03:04PM 35.9694 -115.5644 North 249 287 12,000 -1,020 Descending Los Angeles Center
03:05PM 36.0303 -115.5317 24° Northeast 254 292 11,000 -540 Descending Los Angeles Center
03:06PM 36.0339 -115.4319 87° East 284 327 11,000  Level Los Angeles Center
03:06PM 36.0336 -115.4294 98° East 283 326 11,000 -420 Level Los Angeles Center
03:07PM 36.0278 -115.3308 94° East 289 333 10,600 -840 Descending Los Angeles Center
03:08PM 36.0203 -115.2258 95° East 287 330 9,300 -1,260 Descending Los Angeles Center
03:08PM 36.0192 -115.2242 129° Southeast 285 328 9,300 -1,080 Level Los Angeles Center
03:09PM 36.0139 -115.1258 94° East 276 318 8,200 -1,020 Descending Los Angeles Center
03:09PM 36.0136 -115.1197 93° East 271 312 8,200 -240 Level Los Angeles Center
03:10PM 36.0075 -115.0431 96° East 244 281 8,000 -480 Descending Los Angeles Center
03:11PM 36.0050 -114.9708 92° East 222 255 7,300 -720 Descending Los Angeles Center
03:11PM 36.0036 -114.9625 102° East 222 255 7,300 -900 Level Los Angeles Center
03:12PM 36.0050 -114.9019 88° East 215 247 6,500 -900 Descending Los Angeles Center
03:12PM 36.0072 -114.8983 53° Northeast 212 244 6,400 -1,140 Descending Los Angeles Center
03:13PM 36.0575 -114.9056 353° North 198 228 5,400 -1,080 Descending Los Angeles Center
03:13PM 36.0614 -114.9158 295° West 203 234 5,300 -840 Descending Los Angeles Center
03:14PM 36.0722 -114.9725 283° West 189 217 4,500 -900 Descending Los Angeles Center
03:14PM 36.0736 -114.9761 295° West 181 208 4,400 -1,020 Descending Los Angeles Center
03:15PM 36.0728 -115.0336 269° West 189 217 3,600 -1,020 Descending Los Angeles Center
03:15PM 36.0739 -115.0458 276° West 188 216 3,400 -900 Descending Los Angeles Center
03:16PM 36.0739 -115.0892 270° West 153 176 2,700 -900 Descending Los Angeles Center
03:16PM 36.0736 -115.0983 268° West 152 175 2,500 -600 Descending Los Angeles Center
03:17PM 36.0722 -115.1439 268° West 140 161 2,000 -540 Descending Los Angeles Center
03:19PM 36.0667 -115.1500 294° West  Level FlightAware Approximate